createdAt,value
2022-12-23T00:04:52.967Z,0
2022-12-23T00:10:18.354Z,0
2022-12-23T00:15:45.298Z,0
2022-12-23T00:21:10.811Z,0
2022-12-23T00:26:36.332Z,0
2022-12-23T00:32:01.937Z,0
2022-12-23T00:37:27.660Z,0
2022-12-23T00:42:53.319Z,0
2022-12-23T00:48:18.676Z,0
2022-12-23T00:53:44.093Z,0
2022-12-23T00:59:09.663Z,0
2022-12-23T01:04:35.089Z,0
2022-12-23T01:10:00.612Z,0
2022-12-23T01:15:25.851Z,0
2022-12-23T01:20:51.383Z,0
2022-12-23T01:26:16.843Z,0
2022-12-23T01:31:42.462Z,0
2022-12-23T01:37:08.292Z,0
2022-12-23T01:47:36.319Z,0
2022-12-23T01:53:07.137Z,0
2022-12-23T01:58:33.061Z,0
2022-12-23T02:03:58.577Z,0
2022-12-23T02:09:24.125Z,0
2022-12-23T02:24:54.541Z,0
2022-12-23T02:30:20.174Z,0
2022-12-23T02:40:47.852Z,0
2022-12-23T02:51:17.889Z,0
2022-12-23T02:56:43.541Z,0
2022-12-23T03:02:09.101Z,0
2022-12-23T03:07:34.793Z,0
2022-12-23T03:13:00.331Z,0
2022-12-23T03:23:29.193Z,0
2022-12-23T03:33:56.961Z,0
2022-12-23T03:39:22.353Z,0
2022-12-23T03:45:03.934Z,0
2022-12-23T03:50:36.898Z,0
2022-12-23T03:56:02.257Z,0
2022-12-23T04:01:27.792Z,0
2022-12-23T04:06:53.402Z,0
2022-12-23T04:12:18.796Z,0
2022-12-23T04:22:47.270Z,0
2022-12-23T04:28:12.714Z,0
2022-12-23T04:33:38.228Z,0
2022-12-23T04:39:03.741Z,0
2022-12-23T04:49:32.823Z,0
2022-12-23T04:54:58.434Z,0
2022-12-23T05:00:23.844Z,0
2022-12-23T05:05:49.260Z,0
2022-12-23T05:11:15.052Z,0
2022-12-23T05:16:40.507Z,0
2022-12-23T05:22:06.137Z,0
2022-12-23T05:27:31.752Z,0
2022-12-23T05:32:57.207Z,0
2022-12-23T05:38:22.591Z,0
2022-12-23T05:43:47.924Z,0
2022-12-23T05:49:13.319Z,0
2022-12-23T05:54:38.582Z,0
2022-12-23T06:00:03.980Z,0
2022-12-23T06:05:29.428Z,0
2022-12-23T06:10:54.910Z,0
2022-12-23T06:16:20.375Z,0
2022-12-23T06:21:45.947Z,0
2022-12-23T06:27:11.482Z,0
2022-12-23T06:32:38.713Z,0
2022-12-23T06:38:07.568Z,0
2022-12-23T06:43:34.603Z,0
2022-12-23T06:48:59.803Z,0
2022-12-23T06:54:25.272Z,0
2022-12-23T06:59:50.511Z,0
2022-12-23T07:10:41.990Z,0.5
2022-12-23T07:16:07.651Z,23.3
2022-12-23T07:21:32.783Z,45
2022-12-23T07:26:58.575Z,67.5
2022-12-23T07:32:23.661Z,72.9
2022-12-23T07:47:57.154Z,208.3
2022-12-23T07:53:22.301Z,336.2
2022-12-23T07:58:47.386Z,335
2022-12-23T08:04:12.262Z,422.9
2022-12-23T08:09:40.271Z,607.5
2022-12-23T08:15:05.258Z,772.1
2022-12-23T08:20:41.721Z,781.2
2022-12-23T08:26:07.253Z,855.4
2022-12-23T08:31:32.381Z,1188.7
2022-12-23T08:36:57.598Z,1307.1
2022-12-23T08:42:22.621Z,1266.2
2022-12-23T08:47:48.045Z,1367.9
2022-12-23T08:53:12.829Z,1535.4
2022-12-23T08:58:37.898Z,1697.1
2022-12-23T09:04:03.057Z,1860.8
2022-12-23T09:09:33.731Z,1567.9
2022-12-23T09:14:58.808Z,1433.3
2022-12-23T09:20:23.760Z,1607.5
2022-12-23T09:25:52.138Z,1760
2022-12-23T09:31:17.332Z,1642.1
2022-12-23T09:36:47.987Z,2479.6
2022-12-23T09:42:15.707Z,3107.9
2022-12-23T09:47:38.945Z,3540.8
2022-12-23T09:52:56.084Z,4034.2
2022-12-23T09:58:13.056Z,4331.7
2022-12-23T10:03:30.306Z,4757.5
2022-12-23T10:08:50.621Z,3947.9
2022-12-23T10:19:17.855Z,3079.2
2022-12-23T10:29:54.669Z,2151.2
2022-12-23T10:35:11.669Z,1376.7
2022-12-23T10:40:28.577Z,1342.5
2022-12-23T10:45:45.359Z,1504.2
2022-12-23T10:51:02.243Z,1356.3
2022-12-23T10:56:19.212Z,1165
2022-12-23T11:01:36.197Z,1353.7
2022-12-23T11:07:11.024Z,2002.9
2022-12-23T11:13:04.255Z,1785
2022-12-23T11:18:23.518Z,1741.7
2022-12-23T11:23:41.726Z,2397.5
2022-12-23T11:28:58.646Z,3387.1
2022-12-23T11:34:15.782Z,5080
2022-12-23T11:39:33.105Z,6279.6
2022-12-23T11:44:49.965Z,2721.3
2022-12-23T11:50:07.075Z,1905
2022-12-23T11:55:23.888Z,969.2
2022-12-23T12:00:49.347Z,2095.8
2022-12-23T12:06:09.304Z,4173.3
2022-12-23T12:11:26.512Z,2371.7
2022-12-23T12:16:57.172Z,2031.7
2022-12-23T12:22:14.481Z,3259.6
2022-12-23T12:27:31.590Z,3771.3
2022-12-23T12:38:08.028Z,1019.6
2022-12-23T12:43:24.755Z,806.7
2022-12-23T12:48:41.446Z,1377.9
2022-12-23T12:54:05.428Z,845.8
2022-12-23T12:59:22.701Z,2587.5
2022-12-23T13:04:39.676Z,1965.8
2022-12-23T13:09:59.337Z,2737.5
2022-12-23T13:15:16.412Z,1470
2022-12-23T13:20:39.091Z,1550.8
2022-12-23T13:26:02.203Z,1120
2022-12-23T13:31:19.637Z,988.7
2022-12-23T13:42:01.451Z,756.7
2022-12-23T13:47:21.782Z,1005.4
2022-12-23T13:52:42.103Z,1747.9
2022-12-23T13:57:59.178Z,1550
2022-12-23T14:03:18.938Z,2958.8
2022-12-23T14:08:36.228Z,952.1
2022-12-23T14:13:54.068Z,1159.6
2022-12-23T14:19:11.065Z,1836.7
2022-12-23T14:24:28.119Z,515.4
2022-12-23T14:29:45.028Z,1096.7
2022-12-23T14:35:02.318Z,906.7
2022-12-23T14:40:19.195Z,813.3
2022-12-23T14:45:36.194Z,941.3
2022-12-23T14:50:53.094Z,838.3
2022-12-23T14:56:10.290Z,774.6
2022-12-23T15:01:27.402Z,254.6
2022-12-23T15:06:44.229Z,233.8
2022-12-23T15:12:01.356Z,167.9
2022-12-23T15:17:18.339Z,208.3
2022-12-23T15:22:35.305Z,240.4
2022-12-23T15:27:55.986Z,166.7
2022-12-23T15:34:02.005Z,153.3
2022-12-23T15:39:20.378Z,53.3
2022-12-23T15:44:37.283Z,40.4
2022-12-23T15:49:54.552Z,0
2022-12-23T15:55:11.701Z,0
2022-12-23T16:00:28.942Z,0
2022-12-23T16:05:46.132Z,0
2022-12-23T16:11:03.438Z,0
2022-12-23T16:16:21.081Z,0
2022-12-23T16:26:59.281Z,0
2022-12-23T16:32:19.823Z,0
2022-12-23T16:37:58.260Z,0
2022-12-23T16:43:15.811Z,0
2022-12-23T16:48:33.149Z,0
2022-12-23T16:54:00.616Z,0
2022-12-23T16:59:18.380Z,0
2022-12-23T17:04:35.676Z,0
2022-12-23T17:09:53.057Z,0
2022-12-23T17:15:10.357Z,0
2022-12-23T17:20:27.813Z,0
2022-12-23T17:25:45.151Z,0
2022-12-23T17:31:04.091Z,0
2022-12-23T17:36:24.557Z,0
2022-12-23T17:41:42.099Z,0
2022-12-23T17:52:19.506Z,0
2022-12-23T17:57:36.911Z,0
2022-12-23T18:02:54.825Z,0
2022-12-23T18:08:14.576Z,0
2022-12-23T18:13:32.302Z,0
2022-12-23T18:18:49.616Z,0
2022-12-23T18:24:07.350Z,0
2022-12-23T18:29:24.803Z,0
2022-12-23T18:34:41.977Z,0
2022-12-23T18:39:59.021Z,0
2022-12-23T18:45:21.529Z,0
2022-12-23T18:50:39.228Z,0
2022-12-23T18:55:56.550Z,0
2022-12-23T19:01:25.332Z,0
2022-12-23T19:06:43.091Z,0
2022-12-23T19:12:00.303Z,0
2022-12-23T19:17:17.622Z,0
2022-12-23T19:22:35.259Z,0
2022-12-23T19:27:56.054Z,0
2022-12-23T19:33:13.393Z,0
2022-12-23T19:38:30.668Z,0
2022-12-23T19:43:48.227Z,0
2022-12-23T19:49:05.424Z,0
2022-12-23T19:54:22.881Z,0
2022-12-23T19:59:40.131Z,0
2022-12-23T20:04:57.491Z,0
2022-12-23T20:10:20.069Z,0
2022-12-23T20:15:37.749Z,0
2022-12-23T20:20:55.114Z,0
2022-12-23T20:26:17.411Z,0
2022-12-23T20:31:35.029Z,0
2022-12-23T20:36:52.490Z,0
2022-12-23T20:42:09.788Z,0
2022-12-23T20:47:39.355Z,0
2022-12-23T20:52:57.177Z,0
2022-12-23T20:58:14.566Z,0
2022-12-23T21:03:32.050Z,0
2022-12-23T21:08:50.627Z,0
2022-12-23T21:14:28.687Z,0
2022-12-23T21:19:46.954Z,0
2022-12-23T21:25:04.179Z,0
2022-12-23T21:30:21.452Z,0
2022-12-23T21:41:20.351Z,0
2022-12-23T21:46:40.017Z,0
2022-12-23T21:52:00.338Z,0
2022-12-23T21:57:18.008Z,0
2022-12-23T22:02:35.318Z,0
2022-12-23T22:07:52.790Z,0
2022-12-23T22:13:10.500Z,0
2022-12-23T22:18:30.230Z,0
2022-12-23T22:23:49.661Z,0
2022-12-23T22:29:28.373Z,0
2022-12-23T22:34:45.967Z,0
2022-12-23T22:40:03.551Z,0
2022-12-23T22:45:20.770Z,0
2022-12-23T22:56:35.354Z,0
2022-12-23T23:01:53.534Z,0
2022-12-23T23:12:21.018Z,0
2022-12-23T23:17:38.590Z,0
2022-12-23T23:22:56.139Z,0
2022-12-23T23:28:13.505Z,0
2022-12-23T23:33:36.712Z,0
2022-12-23T23:38:53.994Z,0
2022-12-23T23:44:11.432Z,0
2022-12-23T23:49:28.796Z,0
2022-12-23T23:54:48.312Z,0
